Hovedside
METAR-TAF:

METAR-TAF

Lufthavner :

Uppsala, Sverige

breddegrad: 59-53N, lengdegrad: 017-36E, høyde over havet: 21 m

METAR: fraværende

Tid: 15:18 (14:18 UTC)

Varsel

Denne rapporten ble laget for 2 timer og 53 minutter siden, klokken 11:25 UTC
Varsel gyldig fra 22. klokken 12 UTC til 22. klokken 15 UTC
Vind 4 kt fra Øst-sørøst
Sikt 10 km eller mer
Brutte skyer i en høyde av 1500 ft
Sannsynlighet 40%
fra 22. klokken 12 UTC til 22. klokken 13 UTC
Brutte skyer i en høyde av 300 ft
Blir
fra 22. klokken 13 UTC til 22. klokken 15 UTC
Vind 12 kt fra Sør-sørøst
Sikt: 2000 m
Brutte skyer i en høyde av 800 ft
snø

TAF: ESCM 221125Z 2212/2215 12004KT 9999 NSW BKN015 PROB40 2212/2213 BKN003 BECMG 2213/2215 15012KT 2000 SN BKN008 RMK MIL

Værobservasjoner og værvarsel for over 4000 flyplasser (METAR- og TAF-rapporter).

Tilgjengelige stasjoner er representert av de røde og gule prikkene på kartet.

Hold musepekeren over prikken for å se navnet på stasjonen.

Klikk så for å se værobservasjoner og -varsler.

For å forandre kartet kan du klikke på den grønne knappen med svart kryss for å zoome inn, på den grønne knappen med strek for å zoome ut, eller på de grønne pilene for å se tilstøtende kart.


METAR-TAF: